Robins Air Force Base
KWRB : now visible

Airfield :











YOU CAN JOIN US ON...

 
LOGIN :

Register | Disclaimer

   EN    FR    IT 

 









Legend :    VFR   Marginal VFR   IFR   Intensive IFR   Very Intensive IFR
Visi :
Ceiling :
>= 8 km
>= 3000ft
5 to 8 km
1000 to 3000 ft
1500m to 5 km
500 to 1000 ft
800 to 1500m
200 to 500 ft
< 800m
< 200 ft
Symbols :   Thunderstorms  Fog  Heavy snow  Heavy precipitations  Wind > 20 kt






- Airport Elevation : 294 ft


KWRB - Robins Air Force Base

CURRENT METAR :
  • 082156Z 35009KT 10SM SCT025 14/10 A2998 RMK AO2A SLP154 T01380100

EXPIRED METARs :
  • 082056Z 33009KT 10SM SCT024 14/10 A2996 RMK AO2A SLP148 60000 T01410099 50000
  • 082038Z 34013KT 10SM SCT019 BKN024 15/10 A2996 RMK AO2A CIG 019V024 BKN V OVC CIG 022 RWY15 SLP147
  • 081956Z 34007KT 10SM OVC019 15/12 A2996 RMK AO2A CIG 018 RWY15 SLP147 T01460117

TAF AMD TAF KWRB
Valid from the 08 at 21:00 until the 09 at 23:00 UTC


082123Z 0821/0923 33012KT 9999 SCT020 QNH2998INS
BECMG 0821/0822 32003KT 9999 SCT020 QNH2998INS
BECMG 0908/0909 VRB03KT 6000 BR SCT002 QNH3012INS
BECMG 0910/0911 VRB03KT 4800 BR BKN002 QNH3013INS
BECMG 0911/0912 VRB03KT 3000 BR OVC002 QNH3015INS
BECMG 0914/0915 VRB03KT 6000 BR OVC012 QNH3017INS
BECMG 0915/0916 10012KT 9999 NSW OVC015 QNH3018INS TX15/0821Z TN06/0911Z
KZTL FIR / North America



MET'MAP, your aeronautical weather chart ! - Copyright ORBIFLY December 2007 - Disclaimer

ORBIFLY MET'MAP TEAM :

Programming & Development : Alexandra Zaïnal
Concept & original design : Baudouin d'Aumeries
Assistance for programming : Marc-Olivier Méhu
Technical & hardware support : Manuel Goepfert

Contact : metmap@orbifly.com




SOURCES & CREDITS :

   NOAA       Earth
Advisory